createdAt,value
2023-03-23T16:01:06.201Z,1.40
2023-03-23T16:13:23.747Z,0.80
2023-03-23T16:46:56.358Z,1.80
2023-03-23T16:51:25.338Z,1.80
2023-03-23T16:55:40.909Z,2.30
2023-03-23T16:59:44.202Z,1.90
2023-03-23T17:04:06.263Z,1.70
2023-03-23T17:08:24.446Z,1.60
2023-03-23T17:16:38.359Z,2.20
2023-03-23T17:21:08.406Z,2.30
2023-03-23T17:38:16.943Z,2.60
2023-03-23T17:42:46.550Z,2.80
2023-03-23T17:47:16.104Z,2.70
2023-03-23T17:51:42.972Z,2.90
2023-03-23T18:13:34.065Z,2.10
2023-03-23T18:18:03.088Z,2.70
2023-03-23T18:22:15.542Z,2.90
2023-03-23T18:31:07.006Z,6.10
2023-03-23T18:48:20.634Z,8.70
2023-03-23T18:52:51.186Z,7.90
2023-03-23T19:19:03.954Z,5.80
2023-03-23T19:23:23.277Z,6.20
2023-03-23T19:28:33.617Z,5.00
2023-03-23T19:32:23.346Z,5.00
2023-03-23T19:37:05.514Z,4.40
2023-03-23T19:41:35.667Z,3.70
2023-03-23T19:58:51.524Z,6.60
2023-03-23T20:03:19.801Z,4.80
2023-03-23T20:07:41.200Z,4.60
2023-03-23T20:28:55.921Z,3.70
2023-03-23T20:33:06.499Z,3.60
2023-03-23T20:58:52.679Z,5.10
2023-03-23T21:03:22.078Z,4.70
2023-03-23T21:07:34.085Z,4.70
2023-03-23T21:11:52.050Z,4.10
2023-03-23T21:16:14.556Z,3.90
2023-03-23T21:42:02.778Z,3.50
2023-03-23T21:46:13.110Z,3.50
2023-03-23T21:50:31.496Z,3.30
2023-03-23T21:54:49.200Z,3.90
2023-03-23T22:24:48.326Z,4.10
2023-03-23T22:29:18.144Z,3.70
2023-03-23T22:33:45.879Z,3.50
2023-03-23T22:38:15.149Z,4.30
2023-03-23T22:42:44.395Z,4.60
2023-03-23T22:47:13.723Z,4.40
2023-03-23T22:51:31.411Z,4.00
2023-03-23T23:26:37.065Z,4.40
2023-03-23T23:30:56.267Z,4.20
2023-03-23T23:35:25.563Z,3.80
2023-03-23T23:39:43.863Z,4.20
2023-03-23T23:44:14.053Z,3.50
2023-03-23T23:48:44.316Z,4.20
